sensor_id;sensor_type;location;lat;lon;timestamp;P1;durP1;ratioP1;P2;durP2;ratioP2
63408;SDS011;49544;50.872;4.348;2022-07-29T00:01:33;5.65;;;1.50;;
63408;SDS011;49544;50.872;4.348;2022-07-29T00:03:59;15.27;;;2.17;;
63408;SDS011;49544;50.872;4.348;2022-07-29T00:06:27;7.72;;;1.70;;
63408;SDS011;49544;50.872;4.348;2022-07-29T00:08:53;5.78;;;1.42;;
63408;SDS011;49544;50.872;4.348;2022-07-29T00:11:18;5.25;;;1.35;;
63408;SDS011;49544;50.872;4.348;2022-07-29T00:13:44;2.45;;;1.55;;
63408;SDS011;49544;50.872;4.348;2022-07-29T00:16:10;5.32;;;1.70;;
63408;SDS011;49544;50.872;4.348;2022-07-29T00:18:35;4.28;;;1.40;;
63408;SDS011;49544;50.872;4.348;2022-07-29T00:21:01;3.45;;;1.20;;
63408;SDS011;49544;50.872;4.348;2022-07-29T00:23:27;3.72;;;1.52;;
63408;SDS011;49544;50.872;4.348;2022-07-29T00:25:52;4.10;;;1.90;;
63408;SDS011;49544;50.872;4.348;2022-07-29T00:28:18;8.70;;;1.50;;
63408;SDS011;49544;50.872;4.348;2022-07-29T00:30:44;4.78;;;1.50;;
63408;SDS011;49544;50.872;4.348;2022-07-29T00:33:14;3.10;;;1.63;;
63408;SDS011;49544;50.872;4.348;2022-07-29T00:35:42;3.05;;;1.52;;
63408;SDS011;49544;50.872;4.348;2022-07-29T00:38:15;3.72;;;1.50;;
63408;SDS011;49544;50.872;4.348;2022-07-29T00:40:45;3.53;;;1.30;;
63408;SDS011;49544;50.872;4.348;2022-07-29T00:43:14;5.75;;;1.40;;
63408;SDS011;49544;50.872;4.348;2022-07-29T00:45:42;7.47;;;2.30;;
63408;SDS011;49544;50.872;4.348;2022-07-29T00:48:08;6.78;;;1.58;;
63408;SDS011;49544;50.872;4.348;2022-07-29T00:50:35;14.10;;;1.92;;
63408;SDS011;49544;50.872;4.348;2022-07-29T00:53:05;6.20;;;2.08;;
63408;SDS011;49544;50.872;4.348;2022-07-29T00:55:31;13.07;;;2.38;;
63408;SDS011;49544;50.872;4.348;2022-07-29T00:57:58;5.53;;;1.70;;
63408;SDS011;49544;50.872;4.348;2022-07-29T01:00:25;5.03;;;1.67;;
63408;SDS011;49544;50.872;4.348;2022-07-29T01:02:52;10.40;;;1.90;;
63408;SDS011;49544;50.872;4.348;2022-07-29T01:05:22;8.60;;;1.55;;
63408;SDS011;49544;50.872;4.348;2022-07-29T01:07:53;7.38;;;1.90;;
63408;SDS011;49544;50.872;4.348;2022-07-29T01:12:51;4.15;;;2.00;;
63408;SDS011;49544;50.872;4.348;2022-07-29T01:15:19;8.13;;;1.48;;
63408;SDS011;49544;50.872;4.348;2022-07-29T01:17:57;9.73;;;2.42;;
63408;SDS011;49544;50.872;4.348;2022-07-29T01:20:44;8.43;;;2.00;;
63408;SDS011;49544;50.872;4.348;2022-07-29T01:23:58;6.97;;;2.08;;
63408;SDS011;49544;50.872;4.348;2022-07-29T01:29:38;6.45;;;1.70;;
63408;SDS011;49544;50.872;4.348;2022-07-29T01:32:11;4.18;;;1.40;;
63408;SDS011;49544;50.872;4.348;2022-07-29T01:40:11;4.63;;;1.55;;
63408;SDS011;49544;50.872;4.348;2022-07-29T01:43:03;4.65;;;1.73;;
63408;SDS011;49544;50.872;4.348;2022-07-29T01:45:40;8.77;;;1.50;;
63408;SDS011;49544;50.872;4.348;2022-07-29T01:51:04;5.25;;;1.75;;
63408;SDS011;49544;50.872;4.348;2022-07-29T01:53:50;5.15;;;1.52;;
63408;SDS011;49544;50.872;4.348;2022-07-29T01:56:31;3.63;;;1.52;;
63408;SDS011;49544;50.872;4.348;2022-07-29T01:58:58;2.60;;;1.45;;
63408;SDS011;49544;50.872;4.348;2022-07-29T02:01:26;3.20;;;1.42;;
63408;SDS011;49544;50.872;4.348;2022-07-29T02:03:57;3.05;;;1.45;;
63408;SDS011;49544;50.872;4.348;2022-07-29T02:06:30;8.77;;;1.42;;
63408;SDS011;49544;50.872;4.348;2022-07-29T02:08:58;4.18;;;1.30;;
63408;SDS011;49544;50.872;4.348;2022-07-29T02:11:26;6.38;;;1.95;;
63408;SDS011;49544;50.872;4.348;2022-07-29T02:13:52;3.72;;;1.95;;
63408;SDS011;49544;50.872;4.348;2022-07-29T02:16:21;4.43;;;1.48;;
63408;SDS011;49544;50.872;4.348;2022-07-29T02:18:49;5.05;;;1.30;;
63408;SDS011;49544;50.872;4.348;2022-07-29T02:21:19;4.63;;;1.73;;
63408;SDS011;49544;50.872;4.348;2022-07-29T02:23:49;7.03;;;1.90;;
63408;SDS011;49544;50.872;4.348;2022-07-29T02:26:20;4.75;;;1.30;;
63408;SDS011;49544;50.872;4.348;2022-07-29T02:28:53;6.00;;;1.88;;
63408;SDS011;49544;50.872;4.348;2022-07-29T02:31:26;5.43;;;1.92;;
63408;SDS011;49544;50.872;4.348;2022-07-29T02:33:59;5.35;;;1.88;;
63408;SDS011;49544;50.872;4.348;2022-07-29T02:36:28;7.35;;;1.67;;
63408;SDS011;49544;50.872;4.348;2022-07-29T02:39:00;9.13;;;2.38;;
63408;SDS011;49544;50.872;4.348;2022-07-29T02:41:53;2.72;;;1.45;;
63408;SDS011;49544;50.872;4.348;2022-07-29T02:44:23;3.65;;;1.50;;
63408;SDS011;49544;50.872;4.348;2022-07-29T02:49:37;5.95;;;1.95;;
63408;SDS011;49544;50.872;4.348;2022-07-29T02:52:26;5.20;;;1.88;;
63408;SDS011;49544;50.872;4.348;2022-07-29T02:55:01;5.30;;;1.90;;
63408;SDS011;49544;50.872;4.348;2022-07-29T02:57:40;4.78;;;2.08;;
63408;SDS011;49544;50.872;4.348;2022-07-29T03:00:15;3.85;;;1.27;;
63408;SDS011;49544;50.872;4.348;2022-07-29T03:02:44;4.28;;;1.60;;
63408;SDS011;49544;50.872;4.348;2022-07-29T03:05:18;4.82;;;1.95;;
63408;SDS011;49544;50.872;4.348;2022-07-29T03:07:55;4.07;;;1.70;;
63408;SDS011;49544;50.872;4.348;2022-07-29T03:10:31;5.30;;;2.05;;
63408;SDS011;49544;50.872;4.348;2022-07-29T03:12:59;9.98;;;2.95;;
63408;SDS011;49544;50.872;4.348;2022-07-29T03:15:26;6.13;;;1.88;;
63408;SDS011;49544;50.872;4.348;2022-07-29T03:17:55;3.22;;;1.83;;
63408;SDS011;49544;50.872;4.348;2022-07-29T03:20:21;2.47;;;1.55;;
63408;SDS011;49544;50.872;4.348;2022-07-29T03:22:49;3.90;;;2.20;;
63408;SDS011;49544;50.872;4.348;2022-07-29T03:25:19;4.18;;;1.70;;
63408;SDS011;49544;50.872;4.348;2022-07-29T03:27:45;3.95;;;2.08;;
63408;SDS011;49544;50.872;4.348;2022-07-29T03:30:12;12.95;;;2.40;;
63408;SDS011;49544;50.872;4.348;2022-07-29T03:32:38;7.07;;;1.90;;
63408;SDS011;49544;50.872;4.348;2022-07-29T03:35:04;9.25;;;2.60;;
63408;SDS011;49544;50.872;4.348;2022-07-29T03:37:39;9.00;;;1.80;;
63408;SDS011;49544;50.872;4.348;2022-07-29T03:40:05;8.13;;;2.20;;
63408;SDS011;49544;50.872;4.348;2022-07-29T03:42:33;7.20;;;2.17;;
63408;SDS011;49544;50.872;4.348;2022-07-29T03:45:03;7.00;;;2.45;;
63408;SDS011;49544;50.872;4.348;2022-07-29T03:47:35;9.07;;;2.53;;
63408;SDS011;49544;50.872;4.348;2022-07-29T03:50:10;8.13;;;2.40;;
63408;SDS011;49544;50.872;4.348;2022-07-29T03:52:39;4.77;;;2.23;;
63408;SDS011;49544;50.872;4.348;2022-07-29T03:55:05;4.57;;;2.35;;
63408;SDS011;49544;50.872;4.348;2022-07-29T03:57:34;7.95;;;2.38;;
63408;SDS011;49544;50.872;4.348;2022-07-29T04:00:03;6.57;;;2.50;;
63408;SDS011;49544;50.872;4.348;2022-07-29T04:02:30;5.70;;;2.60;;
63408;SDS011;49544;50.872;4.348;2022-07-29T04:04:57;5.40;;;2.47;;
63408;SDS011;49544;50.872;4.348;2022-07-29T04:07:25;6.45;;;2.45;;
63408;SDS011;49544;50.872;4.348;2022-07-29T04:09:51;9.23;;;3.10;;
63408;SDS011;49544;50.872;4.348;2022-07-29T04:12:19;9.90;;;2.60;;
63408;SDS011;49544;50.872;4.348;2022-07-29T04:14:47;8.35;;;2.35;;
63408;SDS011;49544;50.872;4.348;2022-07-29T04:17:13;5.72;;;2.20;;
63408;SDS011;49544;50.872;4.348;2022-07-29T04:19:41;7.60;;;2.30;;
63408;SDS011;49544;50.872;4.348;2022-07-29T04:22:07;9.65;;;2.97;;
63408;SDS011;49544;50.872;4.348;2022-07-29T04:24:33;6.75;;;2.65;;
63408;SDS011;49544;50.872;4.348;2022-07-29T04:26:59;7.10;;;2.70;;
63408;SDS011;49544;50.872;4.348;2022-07-29T04:29:25;4.95;;;2.38;;
63408;SDS011;49544;50.872;4.348;2022-07-29T04:31:51;6.80;;;2.33;;
63408;SDS011;49544;50.872;4.348;2022-07-29T04:34:16;7.90;;;2.55;;
63408;SDS011;49544;50.872;4.348;2022-07-29T04:36:44;8.18;;;2.80;;
63408;SDS011;49544;50.872;4.348;2022-07-29T04:39:10;6.72;;;2.35;;
63408;SDS011;49544;50.872;4.348;2022-07-29T04:41:36;5.13;;;2.75;;
63408;SDS011;49544;50.872;4.348;2022-07-29T04:44:02;6.97;;;2.40;;
63408;SDS011;49544;50.872;4.348;2022-07-29T04:46:30;7.60;;;2.53;;
63408;SDS011;49544;50.872;4.348;2022-07-29T04:48:56;5.53;;;2.35;;
63408;SDS011;49544;50.872;4.348;2022-07-29T04:51:22;5.65;;;2.10;;
63408;SDS011;49544;50.872;4.348;2022-07-29T04:53:48;4.55;;;2.50;;
63408;SDS011;49544;50.872;4.348;2022-07-29T04:56:16;8.45;;;2.88;;
63408;SDS011;49544;50.872;4.348;2022-07-29T04:58:41;6.70;;;3.05;;
63408;SDS011;49544;50.872;4.348;2022-07-29T05:01:07;4.18;;;2.30;;
63408;SDS011;49544;50.872;4.348;2022-07-29T05:03:33;6.18;;;2.70;;
63408;SDS011;49544;50.872;4.348;2022-07-29T05:05:59;6.03;;;2.63;;
63408;SDS011;49544;50.872;4.348;2022-07-29T05:08:26;10.48;;;3.10;;
63408;SDS011;49544;50.872;4.348;2022-07-29T05:10:52;8.40;;;3.33;;
63408;SDS011;49544;50.872;4.348;2022-07-29T05:13:20;6.20;;;2.75;;
63408;SDS011;49544;50.872;4.348;2022-07-29T05:15:52;6.88;;;2.80;;
63408;SDS011;49544;50.872;4.348;2022-07-29T05:18:19;4.60;;;2.15;;
63408;SDS011;49544;50.872;4.348;2022-07-29T05:20:47;7.65;;;2.47;;
63408;SDS011;49544;50.872;4.348;2022-07-29T05:23:13;8.15;;;3.13;;
63408;SDS011;49544;50.872;4.348;2022-07-29T05:25:43;4.57;;;2.60;;
63408;SDS011;49544;50.872;4.348;2022-07-29T05:28:09;11.38;;;3.60;;
63408;SDS011;49544;50.872;4.348;2022-07-29T05:30:39;5.65;;;2.67;;
63408;SDS011;49544;50.872;4.348;2022-07-29T05:33:04;10.13;;;3.55;;
63408;SDS011;49544;50.872;4.348;2022-07-29T05:35:30;10.25;;;3.05;;
63408;SDS011;49544;50.872;4.348;2022-07-29T05:37:56;13.18;;;2.80;;
63408;SDS011;49544;50.872;4.348;2022-07-29T05:40:22;5.25;;;2.97;;
63408;SDS011;49544;50.872;4.348;2022-07-29T05:42:48;6.40;;;2.95;;
63408;SDS011;49544;50.872;4.348;2022-07-29T05:45:13;6.78;;;2.88;;
63408;SDS011;49544;50.872;4.348;2022-07-29T05:47:39;4.85;;;2.35;;
63408;SDS011;49544;50.872;4.348;2022-07-29T05:50:05;7.05;;;2.85;;
63408;SDS011;49544;50.872;4.348;2022-07-29T05:52:34;4.80;;;2.47;;
63408;SDS011;49544;50.872;4.348;2022-07-29T05:55:00;6.72;;;2.38;;
63408;SDS011;49544;50.872;4.348;2022-07-29T05:57:31;9.05;;;3.28;;
63408;SDS011;49544;50.872;4.348;2022-07-29T06:00:00;12.77;;;2.80;;
63408;SDS011;49544;50.872;4.348;2022-07-29T06:02:26;7.93;;;2.97;;
63408;SDS011;49544;50.872;4.348;2022-07-29T06:04:52;7.07;;;2.70;;
63408;SDS011;49544;50.872;4.348;2022-07-29T06:07:18;9.45;;;2.58;;
63408;SDS011;49544;50.872;4.348;2022-07-29T06:09:44;8.70;;;2.90;;
63408;SDS011;49544;50.872;4.348;2022-07-29T06:12:10;5.15;;;2.65;;
63408;SDS011;49544;50.872;4.348;2022-07-29T06:14:38;9.00;;;3.30;;
63408;SDS011;49544;50.872;4.348;2022-07-29T06:17:06;6.53;;;3.17;;
63408;SDS011;49544;50.872;4.348;2022-07-29T06:19:37;5.70;;;3.10;;
63408;SDS011;49544;50.872;4.348;2022-07-29T06:22:03;7.53;;;2.88;;
63408;SDS011;49544;50.872;4.348;2022-07-29T06:24:29;5.70;;;3.10;;
63408;SDS011;49544;50.872;4.348;2022-07-29T06:26:54;6.53;;;3.47;;
63408;SDS011;49544;50.872;4.348;2022-07-29T06:29:20;16.73;;;3.42;;
63408;SDS011;49544;50.872;4.348;2022-07-29T06:31:49;12.52;;;3.67;;
63408;SDS011;49544;50.872;4.348;2022-07-29T06:34:16;14.52;;;3.60;;
63408;SDS011;49544;50.872;4.348;2022-07-29T06:39:11;7.45;;;3.10;;
63408;SDS011;49544;50.872;4.348;2022-07-29T06:41:37;7.30;;;3.25;;
63408;SDS011;49544;50.872;4.348;2022-07-29T06:44:02;7.15;;;3.35;;
63408;SDS011;49544;50.872;4.348;2022-07-29T06:46:29;5.57;;;2.95;;
63408;SDS011;49544;50.872;4.348;2022-07-29T06:48:57;9.07;;;3.03;;
63408;SDS011;49544;50.872;4.348;2022-07-29T06:51:23;6.78;;;3.47;;
63408;SDS011;49544;50.872;4.348;2022-07-29T06:53:50;6.45;;;3.00;;
63408;SDS011;49544;50.872;4.348;2022-07-29T06:56:17;8.70;;;3.58;;
63408;SDS011;49544;50.872;4.348;2022-07-29T06:58:45;7.57;;;3.17;;
63408;SDS011;49544;50.872;4.348;2022-07-29T07:01:11;9.38;;;2.85;;
63408;SDS011;49544;50.872;4.348;2022-07-29T07:03:39;8.60;;;3.00;;
63408;SDS011;49544;50.872;4.348;2022-07-29T07:06:06;9.27;;;3.30;;
63408;SDS011;49544;50.872;4.348;2022-07-29T07:08:32;9.82;;;2.72;;
63408;SDS011;49544;50.872;4.348;2022-07-29T07:10:59;7.22;;;3.60;;
63408;SDS011;49544;50.872;4.348;2022-07-29T07:13:25;9.27;;;3.55;;
63408;SDS011;49544;50.872;4.348;2022-07-29T07:15:59;8.70;;;2.95;;
63408;SDS011;49544;50.872;4.348;2022-07-29T07:18:30;11.45;;;3.65;;
63408;SDS011;49544;50.872;4.348;2022-07-29T07:20:56;12.65;;;3.75;;
63408;SDS011;49544;50.872;4.348;2022-07-29T07:23:25;4.57;;;2.83;;
63408;SDS011;49544;50.872;4.348;2022-07-29T07:25:51;13.48;;;3.20;;
63408;SDS011;49544;50.872;4.348;2022-07-29T07:28:21;6.85;;;2.72;;
63408;SDS011;49544;50.872;4.348;2022-07-29T07:33:18;6.13;;;2.67;;
63408;SDS011;49544;50.872;4.348;2022-07-29T07:35:46;6.95;;;2.70;;
63408;SDS011;49544;50.872;4.348;2022-07-29T07:38:15;4.90;;;2.33;;
63408;SDS011;49544;50.872;4.348;2022-07-29T07:40:41;6.43;;;3.10;;
63408;SDS011;49544;50.872;4.348;2022-07-29T07:43:13;8.40;;;2.85;;
63408;SDS011;49544;50.872;4.348;2022-07-29T07:45:39;6.10;;;2.78;;
63408;SDS011;49544;50.872;4.348;2022-07-29T07:48:09;4.80;;;2.90;;
63408;SDS011;49544;50.872;4.348;2022-07-29T07:50:38;7.13;;;2.95;;
63408;SDS011;49544;50.872;4.348;2022-07-29T07:53:06;7.85;;;3.70;;
63408;SDS011;49544;50.872;4.348;2022-07-29T07:55:33;9.15;;;3.17;;
63408;SDS011;49544;50.872;4.348;2022-07-29T07:58:10;4.72;;;3.13;;
63408;SDS011;49544;50.872;4.348;2022-07-29T08:00:39;5.72;;;2.88;;
63408;SDS011;49544;50.872;4.348;2022-07-29T08:03:07;9.95;;;3.15;;
63408;SDS011;49544;50.872;4.348;2022-07-29T08:05:40;4.10;;;2.60;;
63408;SDS011;49544;50.872;4.348;2022-07-29T08:08:09;6.38;;;2.80;;
63408;SDS011;49544;50.872;4.348;2022-07-29T08:10:34;5.65;;;2.65;;
63408;SDS011;49544;50.872;4.348;2022-07-29T08:13:28;6.63;;;2.60;;
63408;SDS011;49544;50.872;4.348;2022-07-29T08:15:56;4.95;;;3.00;;
63408;SDS011;49544;50.872;4.348;2022-07-29T08:18:26;8.88;;;2.85;;
63408;SDS011;49544;50.872;4.348;2022-07-29T08:20:56;10.05;;;2.53;;
63408;SDS011;49544;50.872;4.348;2022-07-29T08:23:25;5.75;;;2.40;;
63408;SDS011;49544;50.872;4.348;2022-07-29T08:25:53;6.90;;;2.70;;
63408;SDS011;49544;50.872;4.348;2022-07-29T08:28:22;4.03;;;2.38;;
63408;SDS011;49544;50.872;4.348;2022-07-29T08:30:52;5.28;;;2.35;;
63408;SDS011;49544;50.872;4.348;2022-07-29T08:33:18;3.63;;;2.40;;
63408;SDS011;49544;50.872;4.348;2022-07-29T08:35:46;5.32;;;2.13;;
63408;SDS011;49544;50.872;4.348;2022-07-29T08:38:17;11.85;;;2.60;;
63408;SDS011;49544;50.872;4.348;2022-07-29T08:40:46;5.78;;;2.20;;
63408;SDS011;49544;50.872;4.348;2022-07-29T08:43:18;7.63;;;2.40;;
63408;SDS011;49544;50.872;4.348;2022-07-29T08:45:45;5.88;;;2.35;;
63408;SDS011;49544;50.872;4.348;2022-07-29T08:48:12;8.35;;;3.35;;
63408;SDS011;49544;50.872;4.348;2022-07-29T08:50:40;6.32;;;2.40;;
63408;SDS011;49544;50.872;4.348;2022-07-29T08:53:10;7.07;;;2.40;;
63408;SDS011;49544;50.872;4.348;2022-07-29T08:55:44;5.88;;;2.20;;
63408;SDS011;49544;50.872;4.348;2022-07-29T08:58:14;11.20;;;3.35;;
63408;SDS011;49544;50.872;4.348;2022-07-29T09:00:41;6.40;;;2.50;;
63408;SDS011;49544;50.872;4.348;2022-07-29T09:03:18;8.75;;;2.67;;
63408;SDS011;49544;50.872;4.348;2022-07-29T09:05:47;6.53;;;2.40;;
63408;SDS011;49544;50.872;4.348;2022-07-29T09:08:13;5.68;;;1.80;;
63408;SDS011;49544;50.872;4.348;2022-07-29T09:10:44;6.72;;;2.00;;
63408;SDS011;49544;50.872;4.348;2022-07-29T09:13:10;4.95;;;2.30;;
63408;SDS011;49544;50.872;4.348;2022-07-29T09:15:42;8.25;;;2.20;;
63408;SDS011;49544;50.872;4.348;2022-07-29T09:18:08;6.13;;;2.57;;
63408;SDS011;49544;50.872;4.348;2022-07-29T09:20:36;4.28;;;2.10;;
63408;SDS011;49544;50.872;4.348;2022-07-29T09:23:22;8.68;;;3.13;;
63408;SDS011;49544;50.872;4.348;2022-07-29T09:25:53;6.22;;;2.25;;
63408;SDS011;49544;50.872;4.348;2022-07-29T09:28:30;7.43;;;2.33;;
63408;SDS011;49544;50.872;4.348;2022-07-29T09:31:01;5.68;;;2.53;;
63408;SDS011;49544;50.872;4.348;2022-07-29T09:33:33;11.05;;;2.47;;
63408;SDS011;49544;50.872;4.348;2022-07-29T09:36:08;3.53;;;2.17;;
63408;SDS011;49544;50.872;4.348;2022-07-29T09:38:56;8.10;;;2.30;;
63408;SDS011;49544;50.872;4.348;2022-07-29T09:41:28;7.13;;;2.03;;
63408;SDS011;49544;50.872;4.348;2022-07-29T09:43:57;3.95;;;2.20;;
63408;SDS011;49544;50.872;4.348;2022-07-29T09:46:24;3.28;;;1.80;;
63408;SDS011;49544;50.872;4.348;2022-07-29T09:52:01;5.78;;;1.73;;
63408;SDS011;49544;50.872;4.348;2022-07-29T09:54:30;5.00;;;1.80;;
63408;SDS011;49544;50.872;4.348;2022-07-29T09:57:05;3.80;;;1.80;;
63408;SDS011;49544;50.872;4.348;2022-07-29T10:00:08;8.10;;;2.25;;
63408;SDS011;49544;50.872;4.348;2022-07-29T10:02:48;4.80;;;2.03;;
63408;SDS011;49544;50.872;4.348;2022-07-29T10:05:29;7.43;;;2.25;;
63408;SDS011;49544;50.872;4.348;2022-07-29T10:08:00;7.28;;;2.28;;
63408;SDS011;49544;50.872;4.348;2022-07-29T10:10:33;4.85;;;1.80;;
63408;SDS011;49544;50.872;4.348;2022-07-29T10:13:13;6.93;;;2.00;;
63408;SDS011;49544;50.872;4.348;2022-07-29T10:15:53;5.95;;;1.90;;
63408;SDS011;49544;50.872;4.348;2022-07-29T10:18:19;9.95;;;2.20;;
63408;SDS011;49544;50.872;4.348;2022-07-29T10:20:49;9.77;;;2.00;;
63408;SDS011;49544;50.872;4.348;2022-07-29T10:23:20;4.18;;;1.75;;
63408;SDS011;49544;50.872;4.348;2022-07-29T10:25:58;3.45;;;1.80;;
63408;SDS011;49544;50.872;4.348;2022-07-29T10:28:29;3.28;;;1.48;;
63408;SDS011;49544;50.872;4.348;2022-07-29T10:31:00;12.25;;;2.53;;
63408;SDS011;49544;50.872;4.348;2022-07-29T10:36:54;6.07;;;1.85;;
63408;SDS011;49544;50.872;4.348;2022-07-29T10:44:48;5.55;;;2.13;;
63408;SDS011;49544;50.872;4.348;2022-07-29T10:47:19;5.15;;;2.40;;
63408;SDS011;49544;50.872;4.348;2022-07-29T10:50:02;4.82;;;2.22;;
63408;SDS011;49544;50.872;4.348;2022-07-29T10:53:03;6.03;;;2.50;;
63408;SDS011;49544;50.872;4.348;2022-07-29T10:55:35;6.75;;;3.92;;
63408;SDS011;49544;50.872;4.348;2022-07-29T10:58:11;5.10;;;2.72;;
63408;SDS011;49544;50.872;4.348;2022-07-29T11:00:42;6.07;;;3.13;;
63408;SDS011;49544;50.872;4.348;2022-07-29T11:03:54;5.57;;;2.00;;
63408;SDS011;49544;50.872;4.348;2022-07-29T11:06:13;10.50;;;3.17;;
63408;SDS011;49544;50.872;4.348;2022-07-29T11:08:45;7.47;;;2.28;;
63408;SDS011;49544;50.872;4.348;2022-07-29T11:11:54;9.27;;;2.42;;
63408;SDS011;49544;50.872;4.348;2022-07-29T11:17:19;5.45;;;2.28;;
63408;SDS011;49544;50.872;4.348;2022-07-29T11:19:51;10.07;;;2.45;;
63408;SDS011;49544;50.872;4.348;2022-07-29T11:22:43;5.22;;;1.73;;
63408;SDS011;49544;50.872;4.348;2022-07-29T11:25:16;4.22;;;2.60;;
63408;SDS011;49544;50.872;4.348;2022-07-29T11:27:46;6.93;;;2.60;;
63408;SDS011;49544;50.872;4.348;2022-07-29T11:30:12;7.70;;;3.00;;
63408;SDS011;49544;50.872;4.348;2022-07-29T11:32:42;7.97;;;2.75;;
63408;SDS011;49544;50.872;4.348;2022-07-29T11:35:23;6.15;;;2.50;;
63408;SDS011;49544;50.872;4.348;2022-07-29T11:44:00;7.65;;;2.80;;
63408;SDS011;49544;50.872;4.348;2022-07-29T11:49:19;10.05;;;2.15;;
63408;SDS011;49544;50.872;4.348;2022-07-29T11:51:53;4.50;;;2.10;;
63408;SDS011;49544;50.872;4.348;2022-07-29T11:54:24;4.13;;;2.30;;
63408;SDS011;49544;50.872;4.348;2022-07-29T11:56:57;8.50;;;3.63;;
63408;SDS011;49544;50.872;4.348;2022-07-29T11:59:26;6.65;;;3.08;;
63408;SDS011;49544;50.872;4.348;2022-07-29T12:01:57;5.72;;;2.15;;
63408;SDS011;49544;50.872;4.348;2022-07-29T12:04:28;7.63;;;3.15;;
63408;SDS011;49544;50.872;4.348;2022-07-29T12:06:56;10.93;;;2.72;;
63408;SDS011;49544;50.872;4.348;2022-07-29T12:09:22;7.70;;;2.60;;
63408;SDS011;49544;50.872;4.348;2022-07-29T12:11:57;4.95;;;2.40;;
63408;SDS011;49544;50.872;4.348;2022-07-29T12:14:29;7.00;;;2.33;;
63408;SDS011;49544;50.872;4.348;2022-07-29T12:17:01;8.60;;;2.85;;
63408;SDS011;49544;50.872;4.348;2022-07-29T12:19:27;13.50;;;4.20;;
63408;SDS011;49544;50.872;4.348;2022-07-29T12:22:00;8.27;;;2.67;;
63408;SDS011;49544;50.872;4.348;2022-07-29T12:24:42;8.65;;;2.50;;
63408;SDS011;49544;50.872;4.348;2022-07-29T12:27:16;6.78;;;2.40;;
63408;SDS011;49544;50.872;4.348;2022-07-29T12:29:56;8.32;;;2.92;;
63408;SDS011;49544;50.872;4.348;2022-07-29T12:32:39;7.43;;;2.90;;
63408;SDS011;49544;50.872;4.348;2022-07-29T12:37:40;5.75;;;2.53;;
63408;SDS011;49544;50.872;4.348;2022-07-29T12:40:08;8.07;;;2.88;;
63408;SDS011;49544;50.872;4.348;2022-07-29T12:42:39;6.07;;;2.50;;
63408;SDS011;49544;50.872;4.348;2022-07-29T12:45:08;12.23;;;2.83;;
63408;SDS011;49544;50.872;4.348;2022-07-29T12:47:50;8.63;;;3.05;;
63408;SDS011;49544;50.872;4.348;2022-07-29T12:50:23;7.47;;;2.25;;
63408;SDS011;49544;50.872;4.348;2022-07-29T12:52:52;3.17;;;2.10;;
63408;SDS011;49544;50.872;4.348;2022-07-29T12:55:40;4.50;;;1.90;;
63408;SDS011;49544;50.872;4.348;2022-07-29T12:58:37;4.68;;;1.80;;
63408;SDS011;49544;50.872;4.348;2022-07-29T13:01:12;5.90;;;1.92;;
63408;SDS011;49544;50.872;4.348;2022-07-29T13:09:52;15.02;;;3.55;;
63408;SDS011;49544;50.872;4.348;2022-07-29T13:12:13;6.10;;;3.03;;
63408;SDS011;49544;50.872;4.348;2022-07-29T13:14:46;5.70;;;2.17;;
63408;SDS011;49544;50.872;4.348;2022-07-29T13:17:19;7.18;;;1.90;;
63408;SDS011;49544;50.872;4.348;2022-07-29T13:19:48;9.70;;;3.03;;
63408;SDS011;49544;50.872;4.348;2022-07-29T13:22:25;10.38;;;1.90;;
63408;SDS011;49544;50.872;4.348;2022-07-29T13:25:00;3.78;;;2.17;;
63408;SDS011;49544;50.872;4.348;2022-07-29T13:27:31;6.95;;;2.20;;
63408;SDS011;49544;50.872;4.348;2022-07-29T13:30:07;11.43;;;2.15;;
63408;SDS011;49544;50.872;4.348;2022-07-29T13:32:45;3.75;;;1.85;;
63408;SDS011;49544;50.872;4.348;2022-07-29T13:35:16;3.33;;;1.80;;
63408;SDS011;49544;50.872;4.348;2022-07-29T13:37:44;6.90;;;1.93;;
63408;SDS011;49544;50.872;4.348;2022-07-29T13:40:17;7.00;;;1.90;;
63408;SDS011;49544;50.872;4.348;2022-07-29T13:42:50;8.52;;;2.45;;
63408;SDS011;49544;50.872;4.348;2022-07-29T13:45:24;6.63;;;1.60;;
63408;SDS011;49544;50.872;4.348;2022-07-29T13:47:52;5.60;;;1.77;;
63408;SDS011;49544;50.872;4.348;2022-07-29T13:50:21;3.47;;;1.58;;
63408;SDS011;49544;50.872;4.348;2022-07-29T13:52:50;8.55;;;2.00;;
63408;SDS011;49544;50.872;4.348;2022-07-29T13:55:21;9.05;;;2.63;;
63408;SDS011;49544;50.872;4.348;2022-07-29T13:57:52;6.55;;;1.50;;
63408;SDS011;49544;50.872;4.348;2022-07-29T14:00:20;7.07;;;1.55;;
63408;SDS011;49544;50.872;4.348;2022-07-29T14:02:50;9.10;;;2.10;;
63408;SDS011;49544;50.872;4.348;2022-07-29T14:05:21;4.47;;;1.98;;
63408;SDS011;49544;50.872;4.348;2022-07-29T14:07:49;9.55;;;2.00;;
63408;SDS011;49544;50.872;4.348;2022-07-29T14:10:15;5.28;;;1.60;;
63408;SDS011;49544;50.872;4.348;2022-07-29T14:12:43;7.90;;;1.75;;
63408;SDS011;49544;50.872;4.348;2022-07-29T14:15:12;4.63;;;1.85;;
63408;SDS011;49544;50.872;4.348;2022-07-29T14:17:43;9.07;;;1.63;;
63408;SDS011;49544;50.872;4.348;2022-07-29T14:20:09;4.63;;;1.63;;
63408;SDS011;49544;50.872;4.348;2022-07-29T14:22:43;2.85;;;1.52;;
63408;SDS011;49544;50.872;4.348;2022-07-29T14:25:11;4.40;;;2.03;;
63408;SDS011;49544;50.872;4.348;2022-07-29T14:27:46;7.38;;;2.13;;
63408;SDS011;49544;50.872;4.348;2022-07-29T14:30:14;6.07;;;1.80;;
63408;SDS011;49544;50.872;4.348;2022-07-29T14:32:45;8.70;;;1.73;;
63408;SDS011;49544;50.872;4.348;2022-07-29T14:35:11;4.38;;;2.28;;
63408;SDS011;49544;50.872;4.348;2022-07-29T14:37:39;4.45;;;1.65;;
63408;SDS011;49544;50.872;4.348;2022-07-29T14:40:05;5.20;;;1.60;;
63408;SDS011;49544;50.872;4.348;2022-07-29T14:42:44;7.10;;;1.80;;
63408;SDS011;49544;50.872;4.348;2022-07-29T14:45:12;3.95;;;1.80;;
63408;SDS011;49544;50.872;4.348;2022-07-29T14:47:48;6.20;;;1.55;;
63408;SDS011;49544;50.872;4.348;2022-07-29T14:50:19;3.35;;;1.73;;
63408;SDS011;49544;50.872;4.348;2022-07-29T14:52:45;5.53;;;1.60;;
63408;SDS011;49544;50.872;4.348;2022-07-29T14:55:18;6.55;;;2.03;;
63408;SDS011;49544;50.872;4.348;2022-07-29T14:57:53;4.15;;;1.35;;
63408;SDS011;49544;50.872;4.348;2022-07-29T15:00:24;7.20;;;1.50;;
63408;SDS011;49544;50.872;4.348;2022-07-29T15:03:00;4.40;;;1.60;;
63408;SDS011;49544;50.872;4.348;2022-07-29T15:05:28;4.13;;;2.08;;
63408;SDS011;49544;50.872;4.348;2022-07-29T15:07:57;9.40;;;2.38;;
63408;SDS011;49544;50.872;4.348;2022-07-29T15:10:26;6.57;;;1.90;;
63408;SDS011;49544;50.872;4.348;2022-07-29T15:12:59;7.22;;;2.72;;
63408;SDS011;49544;50.872;4.348;2022-07-29T15:15:30;8.50;;;2.50;;
63408;SDS011;49544;50.872;4.348;2022-07-29T15:18:04;5.80;;;1.95;;
63408;SDS011;49544;50.872;4.348;2022-07-29T15:20:36;11.52;;;2.30;;
63408;SDS011;49544;50.872;4.348;2022-07-29T15:23:10;6.63;;;2.28;;
63408;SDS011;49544;50.872;4.348;2022-07-29T15:25:38;10.05;;;2.13;;
63408;SDS011;49544;50.872;4.348;2022-07-29T15:28:05;5.82;;;2.30;;
63408;SDS011;49544;50.872;4.348;2022-07-29T15:30:38;4.68;;;2.25;;
63408;SDS011;49544;50.872;4.348;2022-07-29T15:33:13;4.40;;;2.45;;
63408;SDS011;49544;50.872;4.348;2022-07-29T15:35:42;13.27;;;3.25;;
63408;SDS011;49544;50.872;4.348;2022-07-29T15:38:14;6.22;;;2.55;;
63408;SDS011;49544;50.872;4.348;2022-07-29T15:40:46;10.63;;;2.20;;
63408;SDS011;49544;50.872;4.348;2022-07-29T15:43:20;5.88;;;2.38;;
63408;SDS011;49544;50.872;4.348;2022-07-29T15:45:50;4.40;;;2.22;;
63408;SDS011;49544;50.872;4.348;2022-07-29T15:48:42;9.57;;;2.67;;
63408;SDS011;49544;50.872;4.348;2022-07-29T15:51:08;6.28;;;2.95;;
63408;SDS011;49544;50.872;4.348;2022-07-29T15:53:37;5.38;;;2.22;;
63408;SDS011;49544;50.872;4.348;2022-07-29T15:56:08;3.80;;;2.20;;
63408;SDS011;49544;50.872;4.348;2022-07-29T15:58:40;7.00;;;2.55;;
63408;SDS011;49544;50.872;4.348;2022-07-29T16:01:17;6.28;;;2.33;;